Overview Statistics Trail Chart Weather Telemetry Raw packets
 

This is the latest recevied weather packets stored in our database for station/object WA9NNN-10. If no packets are shown the sender has not sent any weather packets the latest 10 day(s).

<< 81 82 83 84 85 86 87 >>
Time Temp. Humidity Pressure Rain* Wind** Luminosity Snow
1788015810 24.44° C 68% 1021.6 hPa 0 mm - - -
1788015511 24.44° C 68% 1021.6 hPa 0 mm - - -
1788014611 23.89° C 69% 1021.4 hPa 0 mm - - -
1788014311 23.89° C 68% 1021.3 hPa 0 mm - - -
1788013410 23.33° C 70% 1021.3 hPa 0 mm - - -
1788010112 22.78° C 72% 1021.1 hPa 0 mm - - -
1788008612 21.67° C 76% 1021.3 hPa 0 mm - - -
1788004711 18.89° C 81% 1020.6 hPa 0 mm - - -
1788002612 18.89° C 78% 1020.6 hPa 0 mm - - -
1787996912 19.44° C 76% 1020.2 hPa 0 mm - - -
1787994512 20° C 74% 1019.8 hPa 0 mm - - -
1787993012 20° C 73% 1019.8 hPa 0 mm - - -
1787992112 20.56° C 73% 1019.9 hPa 0 mm - - -
1787991211 20.56° C 73% 1019.9 hPa 0 mm - - -
1787990912 20.56° C 73% 1020 hPa 0 mm - - -
1787990312 20.56° C 73% 1020 hPa 0 mm - - -
1787990012 20.56° C 73% 1019.9 hPa 0 mm - - -
1787985211 21.11° C 72% 1020.1 hPa 0 mm - - -
1787984313 21.11° C 71% 1020.2 hPa 0 mm - - -
1787978613 22.22° C 69% 1020.1 hPa 0 mm - - -
1787975011 22.78° C 69% 1019.6 hPa 0 mm - - -
1787974411 22.78° C 68% 1019.7 hPa 0 mm - - -
1787972011 23.33° C 67% 1019.7 hPa 0 mm - - -
1787968711 23.89° C 65% 1019.2 hPa 0 mm - - -
1787968111 24.44° C 65% 1019.1 hPa 0 mm - - -

* Rain latest hour (hover to see other rain measurements)
** Current wind speed in m/s (hover to see current wind gust speed)